Time;durP1;ratioP1;P1;durP2;ratioP2;P2;SDS_P1;SDS_P2;PMS_P1;PMS_P2;Temp;Humidity;BMP_temperature;BMP_pressure;BME280_temperature;BME280_humidity;BME280_pressure;Samples;Min_cycle;Max_cycle;Signal;HPM_P1;HPM_P2
2020/12/07 00:00:20;;;;;;;2.05;1.42;;;5.40;99.90;;;;;;5036319;28;20200;-73
2020/12/07 00:02:47;;;;;;;4.15;1.77;;;5.40;99.90;;;;;;5036540;28;20227;-73
2020/12/07 00:05:13;;;;;;;2.75;1.90;;;5.40;99.90;;;;;;5036176;28;20295;-73
2020/12/07 00:07:40;;;;;;;3.33;1.95;;;5.40;99.90;;;;;;5036391;28;20259;-73
2020/12/07 00:10:07;;;;;;;3.65;2.35;;;5.40;99.90;;;;;;5036209;28;20688;-72
2020/12/07 00:12:35;;;;;;;2.65;1.80;;;5.50;99.90;;;;;;5036189;28;20226;-72
2020/12/07 00:15:02;;;;;;;2.88;1.80;;;5.40;99.90;;;;;;5036216;28;20215;-72
2020/12/07 00:17:28;;;;;;;4.75;2.15;;;5.50;99.90;;;;;;5036326;28;20196;-72
2020/12/07 00:19:55;;;;;;;1.88;1.60;;;5.40;99.90;;;;;;5036208;28;20200;-72
2020/12/07 00:22:22;;;;;;;2.88;1.77;;;5.40;99.90;;;;;;5036205;28;20230;-72
2020/12/07 00:24:49;;;;;;;1.80;1.70;;;5.40;99.90;;;;;;5036016;28;20230;-71
2020/12/07 00:27:23;;;;;;;2.28;1.50;;;5.40;99.90;;;;;;5036089;28;20232;-72
2020/12/07 00:29:50;;;;;;;2.80;1.92;;;5.40;99.90;;;;;;5036061;28;20236;-73
2020/12/07 00:32:17;;;;;;;2.67;2.05;;;5.30;99.90;;;;;;5035598;28;20235;-72
2020/12/07 00:34:43;;;;;;;2.75;1.85;;;5.30;99.90;;;;;;5035776;28;20206;-72
2020/12/07 00:37:10;;;;;;;3.22;2.05;;;5.40;99.90;;;;;;5035881;28;20564;-72
2020/12/07 00:39:36;;;;;;;3.95;2.13;;;5.40;99.90;;;;;;5035898;28;20299;-72
2020/12/07 00:42:04;;;;;;;2.40;2.17;;;5.50;99.90;;;;;;5035521;28;20732;-72
2020/12/07 00:44:31;;;;;;;3.35;1.85;;;5.50;99.90;;;;;;5035705;28;20214;-73
2020/12/07 00:46:57;;;;;;;3.35;2.10;;;5.50;99.90;;;;;;5035588;28;20227;-72
2020/12/07 00:49:24;;;;;;;4.50;2.20;;;5.50;99.90;;;;;;5035739;28;20597;-72
2020/12/07 00:51:50;;;;;;;3.40;1.83;;;5.50;99.90;;;;;;5035505;28;20228;-72
2020/12/07 00:54:17;;;;;;;3.28;1.80;;;5.60;99.90;;;;;;5035602;28;20204;-72
2020/12/07 00:56:43;;;;;;;1.85;1.50;;;5.50;99.90;;;;;;5035307;28;20692;-72
2020/12/07 00:59:11;;;;;;;2.60;2.05;;;5.50;99.90;;;;;;5035470;28;20215;-72
2020/12/07 01:01:37;;;;;;;3.75;1.92;;;5.50;99.90;;;;;;5035373;28;20699;-72
2020/12/07 01:04:04;;;;;;;2.70;1.42;;;5.50;99.90;;;;;;5035230;28;20666;-72
2020/12/07 01:06:30;;;;;;;1.85;1.55;;;5.30;99.90;;;;;;5035227;28;20204;-72
2020/12/07 01:08:57;;;;;;;2.03;1.40;;;5.40;99.90;;;;;;5035263;28;20234;-72
2020/12/07 01:11:23;;;;;;;2.90;1.75;;;5.30;99.90;;;;;;5035236;28;20226;-73
2020/12/07 01:13:50;;;;;;;1.38;1.15;;;5.20;99.90;;;;;;5034933;28;20210;-72
2020/12/07 01:16:22;;;;;;;1.10;1.00;;;5.20;99.90;;;;;;5034764;28;20204;-72
2020/12/07 01:18:49;;;;;;;2.50;1.80;;;5.20;99.90;;;;;;5035047;28;20200;-72
2020/12/07 01:21:16;;;;;;;3.88;1.60;;;5.20;99.90;;;;;;5035314;28;20224;-72
2020/12/07 01:23:44;;;;;;;2.92;1.70;;;5.20;99.90;;;;;;5035111;28;20570;-72
2020/12/07 01:26:11;;;;;;;2.65;1.58;;;5.20;99.90;;;;;;5034705;28;20208;-72
2020/12/07 01:28:38;;;;;;;2.45;1.65;;;5.10;99.90;;;;;;5034839;28;20224;-72
2020/12/07 01:31:04;;;;;;;2.47;1.33;;;5.10;99.90;;;;;;5034562;28;20698;-73
2020/12/07 01:33:32;;;;;;;1.95;1.60;;;5.00;99.90;;;;;;5034680;28;20204;-72
2020/12/07 01:35:58;;;;;;;6.03;2.05;;;5.00;99.90;;;;;;5034550;28;20200;-72
2020/12/07 01:38:24;;;;;;;2.67;2.03;;;5.00;99.90;;;;;;5034783;28;20200;-72
2020/12/07 01:40:51;;;;;;;3.20;1.75;;;5.00;99.90;;;;;;5034640;28;20207;-72
2020/12/07 01:43:18;;;;;;;2.97;2.03;;;5.10;99.90;;;;;;5034781;28;20212;-72
2020/12/07 01:45:45;;;;;;;2.28;1.50;;;5.10;99.90;;;;;;5034223;28;20206;-72
2020/12/07 01:48:12;;;;;;;4.18;2.20;;;5.10;99.90;;;;;;5034518;28;20239;-72
2020/12/07 01:50:41;;;;;;;3.40;2.25;;;5.20;99.90;;;;;;5034533;28;20298;-72
2020/12/07 01:53:08;;;;;;;4.90;2.13;;;5.10;99.90;;;;;;5034510;28;20728;-72
2020/12/07 01:55:35;;;;;;;2.20;1.90;;;5.10;99.90;;;;;;5034134;28;20230;-72
2020/12/07 01:58:01;;;;;;;3.00;2.22;;;5.10;99.90;;;;;;5034158;28;20200;-72
2020/12/07 02:00:27;;;;;;;1.88;1.50;;;5.10;99.90;;;;;;5034346;28;20204;-72
2020/12/07 02:02:54;;;;;;;2.60;1.92;;;5.10;99.90;;;;;;5034032;28;20227;-72
2020/12/07 02:05:21;;;;;;;2.20;2.00;;;5.00;99.90;;;;;;5033237;28;20200;-71
2020/12/07 02:07:50;;;;;;;2.28;2.05;;;5.00;99.90;;;;;;5033853;28;20224;-72
2020/12/07 02:10:17;;;;;;;1.85;1.67;;;5.00;99.90;;;;;;5034028;28;20242;-72
2020/12/07 02:12:43;;;;;;;2.67;2.13;;;4.90;99.90;;;;;;5034185;28;20716;-72
2020/12/07 02:15:09;;;;;;;2.95;2.33;;;4.80;99.90;;;;;;5034151;28;20203;-72
2020/12/07 02:17:36;;;;;;;3.47;2.25;;;4.80;99.90;;;;;;5034075;28;20203;-72
2020/12/07 02:20:03;;;;;;;2.78;2.10;;;4.80;99.90;;;;;;5034054;28;20210;-72
2020/12/07 02:22:29;;;;;;;3.70;2.60;;;4.80;99.90;;;;;;5033676;28;20228;-72
2020/12/07 02:24:55;;;;;;;2.88;2.40;;;4.80;99.90;;;;;;5034080;28;20299;-72
2020/12/07 02:27:22;;;;;;;3.45;2.38;;;4.80;99.90;;;;;;5033882;28;20697;-71
2020/12/07 02:29:48;;;;;;;2.70;2.13;;;4.80;99.90;;;;;;5033909;28;20200;-72
2020/12/07 02:32:16;;;;;;;3.85;2.17;;;4.90;99.90;;;;;;5033595;28;20238;-72
2020/12/07 02:34:43;;;;;;;3.53;2.50;;;4.90;99.90;;;;;;5033516;28;20730;-72
2020/12/07 02:37:11;;;;;;;2.28;2.00;;;4.90;99.90;;;;;;5033495;28;20200;-72
2020/12/07 02:39:37;;;;;;;2.83;1.70;;;4.90;99.90;;;;;;5033677;28;20200;-72
2020/12/07 02:42:04;;;;;;;2.05;1.90;;;4.90;99.90;;;;;;5033707;28;20605;-72
2020/12/07 02:44:31;;;;;;;2.60;2.40;;;4.90;99.90;;;;;;5033553;28;20230;-72
2020/12/07 02:46:58;;;;;;;2.13;1.88;;;4.90;99.90;;;;;;5033626;28;20199;-72
2020/12/07 02:49:24;;;;;;;3.15;2.15;;;4.90;99.90;;;;;;5033659;28;20204;-71
2020/12/07 02:51:51;;;;;;;2.05;1.55;;;4.90;99.90;;;;;;5033664;28;20281;-72
2020/12/07 02:54:18;;;;;;;3.55;2.20;;;4.80;99.90;;;;;;5033603;28;20210;-71
2020/12/07 02:56:45;;;;;;;2.92;2.00;;;4.80;99.90;;;;;;5033347;28;20200;-71
2020/12/07 02:59:11;;;;;;;2.42;1.95;;;4.80;99.90;;;;;;5033391;28;20197;-71
2020/12/07 03:01:38;;;;;;;3.00;2.30;;;4.80;99.90;;;;;;5033459;28;20311;-71
2020/12/07 03:04:04;;;;;;;3.45;2.00;;;4.80;99.90;;;;;;5033568;28;20225;-71
2020/12/07 03:06:30;;;;;;;3.08;1.85;;;4.90;99.90;;;;;;5033073;28;20218;-72
2020/12/07 03:08:56;;;;;;;4.75;2.30;;;4.80;99.90;;;;;;5033370;28;20314;-71
2020/12/07 03:11:24;;;;;;;1.48;1.33;;;4.80;99.90;;;;;;5033373;28;20219;-72
2020/12/07 03:13:50;;;;;;;2.85;2.20;;;4.80;99.90;;;;;;5033467;28;20200;-72
2020/12/07 03:16:17;;;;;;;2.95;2.13;;;4.70;99.90;;;;;;5035584;28;20203;-71
2020/12/07 03:18:43;;;;;;;3.03;1.70;;;4.70;99.90;;;;;;5037347;28;20202;-72
2020/12/07 03:21:09;;;;;;;1.98;1.42;;;4.60;99.90;;;;;;5037167;28;20200;-72
2020/12/07 03:23:36;;;;;;;1.60;1.50;;;4.60;99.90;;;;;;5037361;28;20630;-72
2020/12/07 03:26:02;;;;;;;5.63;1.98;;;4.60;99.90;;;;;;5037081;28;20214;-71
2020/12/07 03:28:29;;;;;;;2.72;2.08;;;4.70;99.90;;;;;;5037222;28;20250;-72
2020/12/07 03:30:55;;;;;;;2.17;1.95;;;4.70;99.90;;;;;;5036932;28;20694;-72
2020/12/07 03:33:22;;;;;;;2.60;2.17;;;4.60;99.90;;;;;;5037191;28;20214;-72
2020/12/07 03:35:48;;;;;;;5.38;2.10;;;4.60;99.90;;;;;;5036874;28;20206;-72
2020/12/07 03:38:14;;;;;;;3.10;1.75;;;4.50;99.90;;;;;;5037092;28;20207;-71
2020/12/07 03:40:41;;;;;;;3.35;2.15;;;4.50;99.90;;;;;;5036952;28;20204;-72
2020/12/07 03:43:07;;;;;;;2.88;1.67;;;4.50;99.90;;;;;;5036870;28;20228;-72
2020/12/07 03:45:34;;;;;;;3.40;2.30;;;4.50;99.90;;;;;;5036648;28;20203;-71
2020/12/07 03:48:00;;;;;;;1.98;1.77;;;4.50;99.90;;;;;;5036802;28;20224;-72
2020/12/07 03:50:27;;;;;;;2.88;1.80;;;4.50;99.90;;;;;;5036581;28;20662;-72
2020/12/07 03:52:53;;;;;;;1.70;1.48;;;4.50;99.90;;;;;;5036491;28;20239;-72
2020/12/07 03:55:19;;;;;;;2.15;1.70;;;4.50;99.90;;;;;;5036501;28;20204;-72
2020/12/07 03:57:46;;;;;;;1.48;1.30;;;4.60;99.90;;;;;;5036852;28;20660;-72
2020/12/07 04:00:12;;;;;;;2.97;1.58;;;4.60;99.90;;;;;;5036812;28;20218;-72
2020/12/07 04:02:40;;;;;;;2.95;2.15;;;4.60;99.90;;;;;;5036572;28;20227;-72
2020/12/07 04:05:12;;;;;;;2.60;1.65;;;4.70;99.90;;;;;;5036442;28;20200;-72
2020/12/07 04:07:39;;;;;;;2.80;1.83;;;4.70;99.90;;;;;;5036489;28;20262;-72
2020/12/07 04:10:05;;;;;;;2.35;1.83;;;4.70;99.90;;;;;;5036562;28;20291;-72
2020/12/07 04:12:31;;;;;;;2.55;2.08;;;4.80;99.90;;;;;;5036278;28;20219;-72
2020/12/07 04:14:58;;;;;;;3.75;2.08;;;4.80;99.90;;;;;;5036357;28;20635;-72
2020/12/07 04:17:24;;;;;;;4.40;1.98;;;4.80;99.90;;;;;;5036286;28;20214;-72
2020/12/07 04:19:51;;;;;;;3.17;2.05;;;4.70;99.90;;;;;;5036163;28;20729;-73
2020/12/07 04:22:17;;;;;;;2.38;1.77;;;4.70;99.90;;;;;;5036022;28;20220;-71
2020/12/07 04:24:44;;;;;;;2.28;1.70;;;4.70;99.90;;;;;;5036069;28;20208;-73
2020/12/07 04:27:10;;;;;;;2.50;1.90;;;4.60;99.90;;;;;;5035315;28;20208;-71
2020/12/07 04:29:36;;;;;;;2.08;1.42;;;4.70;99.90;;;;;;5036170;28;20674;-71
2020/12/07 04:32:03;;;;;;;2.85;1.73;;;4.70;99.90;;;;;;5035841;28;20236;-72
2020/12/07 04:34:29;;;;;;;2.03;1.70;;;4.70;99.90;;;;;;5036086;28;20209;-73
2020/12/07 04:36:56;;;;;;;4.32;2.55;;;4.80;99.90;;;;;;5036065;28;20210;-71
2020/12/07 04:39:22;;;;;;;3.15;1.90;;;4.90;99.90;;;;;;5035868;28;20200;-72
2020/12/07 04:41:49;;;;;;;1.85;1.55;;;5.00;99.90;;;;;;5035844;28;20238;-71
2020/12/07 04:44:17;;;;;;;3.10;2.30;;;5.10;99.90;;;;;;5036008;28;20291;-71
2020/12/07 04:46:44;;;;;;;3.47;2.05;;;5.10;99.90;;;;;;5035735;28;20302;-71
2020/12/07 04:49:12;;;;;;;2.08;1.58;;;5.10;99.90;;;;;;5036251;28;20232;-72
2020/12/07 04:51:39;;;;;;;2.92;1.63;;;5.10;99.90;;;;;;5035662;28;20231;-71
2020/12/07 04:54:07;;;;;;;3.15;1.80;;;5.10;99.90;;;;;;5035693;28;20204;-71
2020/12/07 04:56:36;;;;;;;2.83;1.85;;;5.20;99.90;;;;;;5035412;28;20211;-71
2020/12/07 04:59:03;;;;;;;3.63;1.73;;;5.10;99.90;;;;;;5035562;28;20210;-72
2020/12/07 05:01:29;;;;;;;2.72;1.70;;;5.10;99.90;;;;;;5035428;28;20319;-72
2020/12/07 05:03:55;;;;;;;2.33;1.80;;;5.10;99.90;;;;;;5035562;28;20238;-71
2020/12/07 05:06:23;;;;;;;2.47;1.40;;;5.10;99.90;;;;;;5035128;28;20211;-72
2020/12/07 05:08:49;;;;;;;4.18;2.10;;;5.10;99.90;;;;;;5035282;28;20250;-71
2020/12/07 05:11:16;;;;;;;2.95;1.80;;;5.20;99.90;;;;;;5035234;28;20224;-72
2020/12/07 05:13:45;;;;;;;4.47;2.42;;;5.20;99.90;;;;;;5035315;28;20203;-72
2020/12/07 05:16:12;;;;;;;5.20;2.25;;;5.10;99.90;;;;;;5035238;28;20307;-71
2020/12/07 05:18:40;;;;;;;3.72;1.52;;;5.20;99.90;;;;;;5035344;28;20605;-72
2020/12/07 05:21:06;;;;;;;2.70;1.67;;;5.20;99.90;;;;;;5035133;28;20543;-72
2020/12/07 05:23:35;;;;;;;1.70;1.60;;;5.10;99.90;;;;;;5035179;28;20200;-71
2020/12/07 05:26:03;;;;;;;5.18;1.67;;;5.10;99.90;;;;;;5034706;28;20208;-71
2020/12/07 05:28:37;;;;;;;4.40;1.98;;;5.00;99.90;;;;;;5034677;28;20235;-71
2020/12/07 05:31:03;;;;;;;2.60;1.65;;;5.00;99.90;;;;;;5034869;28;20211;-72
2020/12/07 05:33:30;;;;;;;2.38;1.60;;;5.00;99.90;;;;;;5034959;28;20203;-72
2020/12/07 05:35:57;;;;;;;3.03;1.70;;;5.10;99.90;;;;;;5034554;28;20291;-72
2020/12/07 05:38:32;;;;;;;2.40;1.63;;;5.10;99.90;;;;;;5034804;28;20200;-72
2020/12/07 05:41:01;;;;;;;2.50;1.88;;;5.10;99.90;;;;;;5034448;28;20203;-72
2020/12/07 05:43:28;;;;;;;2.33;1.83;;;5.20;99.90;;;;;;5034926;28;20623;-72
2020/12/07 05:45:57;;;;;;;2.35;1.75;;;5.20;99.90;;;;;;5034375;28;20207;-72
2020/12/07 05:48:28;;;;;;;3.38;1.95;;;5.10;99.90;;;;;;5034601;28;20220;-72
2020/12/07 05:50:56;;;;;;;2.80;1.70;;;5.20;99.90;;;;;;5034403;28;20205;-72
2020/12/07 05:53:24;;;;;;;2.90;1.80;;;5.20;99.90;;;;;;5034604;28;20208;-72
2020/12/07 05:55:50;;;;;;;3.47;2.00;;;5.20;99.90;;;;;;5034319;28;20558;-71
2020/12/07 05:58:20;;;;;;;2.78;2.20;;;5.10;99.90;;;;;;5034419;28;20196;-72
2020/12/07 06:00:47;;;;;;;3.95;1.90;;;5.10;99.90;;;;;;5034895;28;20207;-72
2020/12/07 06:03:18;;;;;;;3.63;1.92;;;5.00;99.90;;;;;;5034043;28;20739;-72
2020/12/07 06:05:45;;;;;;;3.35;1.80;;;5.00;99.90;;;;;;5034024;28;20215;-72
2020/12/07 06:08:16;;;;;;;3.33;2.10;;;5.00;99.90;;;;;;5034091;28;20710;-72
2020/12/07 06:10:47;;;;;;;2.55;1.92;;;5.00;99.90;;;;;;5034314;28;20539;-72
2020/12/07 06:13:17;;;;;;;3.10;2.28;;;5.00;99.90;;;;;;5034214;28;20250;-72
2020/12/07 06:15:45;;;;;;;3.92;1.73;;;4.90;99.90;;;;;;5033810;28;20692;-72
2020/12/07 06:18:25;;;;;;;2.78;1.83;;;4.90;99.90;;;;;;5034040;28;20204;-72
2020/12/07 06:20:55;;;;;;;5.45;2.50;;;4.90;99.90;;;;;;5034206;28;20204;-72
2020/12/07 06:23:30;;;;;;;4.28;2.45;;;4.80;99.90;;;;;;5034487;28;20212;-72
2020/12/07 06:25:59;;;;;;;3.20;2.78;;;4.90;99.90;;;;;;5033823;28;20204;-72
2020/12/07 06:28:31;;;;;;;3.55;2.10;;;4.80;99.90;;;;;;5033805;28;20216;-72
2020/12/07 06:31:03;;;;;;;4.13;2.35;;;4.90;99.90;;;;;;5033546;28;20216;-72
2020/12/07 06:33:37;;;;;;;3.67;2.25;;;4.90;99.90;;;;;;5033973;28;20222;-71
2020/12/07 06:36:03;;;;;;;3.30;2.35;;;4.90;99.90;;;;;;5033708;28;20200;-71
2020/12/07 06:38:39;;;;;;;3.25;2.33;;;4.90;99.90;;;;;;5033911;28;20200;-72
2020/12/07 06:41:05;;;;;;;4.38;2.50;;;4.90;99.90;;;;;;5033722;28;20217;-73
2020/12/07 06:43:33;;;;;;;3.45;1.80;;;4.90;99.90;;;;;;5033989;28;20210;-72
2020/12/07 06:45:59;;;;;;;3.92;2.20;;;4.90;99.90;;;;;;5033689;28;20231;-72
2020/12/07 06:48:27;;;;;;;4.18;2.10;;;4.80;99.90;;;;;;5034060;28;20220;-72
2020/12/07 06:50:56;;;;;;;3.03;2.33;;;4.90;99.90;;;;;;5033409;28;20262;-72
2020/12/07 06:53:38;;;;;;;4.93;3.30;;;5.00;99.90;;;;;;5033349;28;20208;-72
2020/12/07 06:56:05;;;;;;;4.25;2.55;;;5.00;99.90;;;;;;5033408;28;20204;-72
2020/12/07 06:58:35;;;;;;;4.18;2.60;;;5.10;99.90;;;;;;5033576;28;20607;-71
2020/12/07 07:01:09;;;;;;;3.40;2.10;;;5.10;99.90;;;;;;5033439;28;20205;-73
2020/12/07 07:03:36;;;;;;;4.15;2.03;;;5.10;99.90;;;;;;5033264;28;20204;-72
2020/12/07 07:06:10;;;;;;;3.03;2.55;;;5.00;99.90;;;;;;5033197;28;20211;-72
2020/12/07 07:08:37;;;;;;;4.63;2.60;;;5.00;99.90;;;;;;5033375;28;20270;-71
2020/12/07 07:11:05;;;;;;;4.15;2.53;;;4.90;99.90;;;;;;5033140;28;20218;-71
2020/12/07 07:13:32;;;;;;;4.38;3.05;;;4.80;99.90;;;;;;5033477;28;20207;-72
2020/12/07 07:15:58;;;;;;;3.83;2.90;;;4.80;99.90;;;;;;5033059;28;20206;-72
2020/12/07 07:18:25;;;;;;;6.03;3.55;;;4.80;99.90;;;;;;5033322;28;20206;-72
2020/12/07 07:20:51;;;;;;;5.28;3.05;;;4.80;99.90;;;;;;5033378;28;20207;-72
2020/12/07 07:23:18;;;;;;;6.10;3.28;;;4.90;99.90;;;;;;5033256;28;20274;-71
2020/12/07 07:25:55;;;;;;;4.35;2.88;;;4.90;99.90;;;;;;5033123;28;20204;-72
2020/12/07 07:28:21;;;;;;;3.97;2.67;;;4.90;99.90;;;;;;5033327;28;20224;-72
2020/12/07 07:30:47;;;;;;;5.40;2.80;;;5.00;99.90;;;;;;5033143;28;20590;-72
2020/12/07 07:33:14;;;;;;;4.10;3.00;;;5.10;99.90;;;;;;5033047;28;20450;-72
2020/12/07 07:35:40;;;;;;;4.13;2.75;;;5.10;99.90;;;;;;5033075;28;20560;-72
2020/12/07 07:38:06;;;;;;;2.47;2.28;;;5.20;99.90;;;;;;5033205;28;20291;-72
2020/12/07 07:40:33;;;;;;;5.32;3.08;;;5.20;99.90;;;;;;5033021;28;20674;-72
2020/12/07 07:43:02;;;;;;;3.17;2.45;;;5.20;99.90;;;;;;5033027;28;20728;-72
2020/12/07 07:45:32;;;;;;;3.40;2.30;;;5.10;99.90;;;;;;5032902;28;20291;-73
2020/12/07 07:48:03;;;;;;;3.92;2.47;;;5.10;99.90;;;;;;5033358;28;20231;-72
2020/12/07 08:16:14;;;;;;;4.28;1.92;;;5.50;99.90;;;;;;5036510;28;20247;-72
2020/12/07 08:18:41;;;;;;;4.65;2.55;;;5.50;99.90;;;;;;5036481;28;20279;-72
2020/12/07 08:21:09;;;;;;;3.53;2.53;;;5.70;99.90;;;;;;5036138;28;20200;-73
2020/12/07 08:23:36;;;;;;;3.75;2.33;;;5.80;99.90;;;;;;5035999;28;20240;-72
2020/12/07 08:26:03;;;;;;;3.55;2.75;;;5.80;99.90;;;;;;5036130;28;20555;-72
2020/12/07 08:28:32;;;;;;;5.38;2.45;;;5.90;99.90;;;;;;5036069;28;20320;-72
2020/12/07 08:31:10;;;;;;;3.70;2.25;;;6.00;99.90;;;;;;5035929;28;20219;-72
2020/12/07 08:33:39;;;;;;;2.97;2.13;;;6.00;99.90;;;;;;5036047;28;20208;-72
2020/12/07 08:36:07;;;;;;;3.58;2.03;;;6.10;99.90;;;;;;5035847;28;20300;-72
2020/12/07 08:38:36;;;;;;;3.08;2.00;;;6.10;99.90;;;;;;5035989;28;20227;-72
2020/12/07 08:41:05;;;;;;;3.35;2.10;;;6.10;99.90;;;;;;5035816;28;20208;-72
2020/12/07 08:43:33;;;;;;;3.53;1.80;;;6.10;99.90;;;;;;5035651;28;20670;-71
2020/12/07 08:45:59;;;;;;;4.00;1.90;;;6.10;99.90;;;;;;5035466;28;20212;-71
2020/12/07 08:48:25;;;;;;;1.95;1.70;;;6.20;99.90;;;;;;5035737;28;20648;-72
2020/12/07 08:50:54;;;;;;;4.13;2.35;;;6.20;99.90;;;;;;5035471;28;20724;-72
2020/12/07 08:53:20;;;;;;;4.28;2.47;;;6.20;99.90;;;;;;5035730;28;20204;-72
2020/12/07 08:55:47;;;;;;;7.40;4.20;;;6.30;99.90;;;;;;5035383;28;20204;-72
2020/12/07 08:58:13;;;;;;;7.88;3.42;;;6.30;99.90;;;;;;5035598;28;20307;-72
2020/12/07 09:00:40;;;;;;;4.28;2.78;;;6.30;99.90;;;;;;5035430;28;20200;-72
2020/12/07 09:03:07;;;;;;;4.30;2.88;;;6.40;99.90;;;;;;5035461;28;20314;-72
2020/12/07 09:05:33;;;;;;;4.20;2.70;;;6.50;99.90;;;;;;5035267;28;20206;-71
2020/12/07 09:07:59;;;;;;;2.70;2.15;;;6.50;99.90;;;;;;5035524;28;20206;-72
2020/12/07 09:10:26;;;;;;;3.60;2.63;;;6.50;99.90;;;;;;5035337;28;20242;-71
2020/12/07 09:12:52;;;;;;;3.83;2.38;;;6.50;99.90;;;;;;5035149;28;20224;-71
2020/12/07 09:15:18;;;;;;;2.63;2.20;;;6.60;99.90;;;;;;5035117;28;20226;-72
2020/12/07 09:17:46;;;;;;;3.28;2.75;;;6.60;99.90;;;;;;5035220;28;20568;-71
2020/12/07 09:20:12;;;;;;;2.10;1.85;;;6.70;99.90;;;;;;5034867;28;20208;-72
2020/12/07 09:22:38;;;;;;;7.30;1.90;;;6.70;99.90;;;;;;5035124;28;20224;-72
2020/12/07 09:25:05;;;;;;;4.28;2.63;;;6.80;99.90;;;;;;5034828;28;20204;-72
2020/12/07 09:27:31;;;;;;;3.10;2.00;;;6.70;99.90;;;;;;5035055;28;20282;-71
2020/12/07 09:29:57;;;;;;;5.20;2.70;;;6.60;99.90;;;;;;5034826;28;20702;-72
2020/12/07 09:32:24;;;;;;;3.00;2.15;;;6.60;99.90;;;;;;5034587;28;20227;-72
2020/12/07 09:34:51;;;;;;;3.55;2.35;;;6.50;99.90;;;;;;5034504;28;20218;-72
2020/12/07 09:37:17;;;;;;;5.72;2.30;;;6.30;99.90;;;;;;5035012;28;20204;-71
2020/12/07 09:39:43;;;;;;;4.90;2.35;;;6.30;99.90;;;;;;5034713;28;20204;-71
2020/12/07 09:42:10;;;;;;;4.85;2.63;;;6.20;99.90;;;;;;5034650;28;20705;-71
2020/12/07 09:44:36;;;;;;;3.92;2.10;;;6.10;99.90;;;;;;5034807;28;20210;-72
2020/12/07 09:47:02;;;;;;;3.08;2.60;;;6.00;99.90;;;;;;5034671;28;20230;-71
2020/12/07 09:49:29;;;;;;;3.50;2.10;;;5.90;99.90;;;;;;5034644;28;20235;-71
2020/12/07 09:51:56;;;;;;;4.00;2.03;;;5.90;99.90;;;;;;5034384;28;20238;-72
2020/12/07 09:54:22;;;;;;;3.78;2.78;;;5.80;99.90;;;;;;5034259;28;20208;-71
2020/12/07 09:56:49;;;;;;;4.82;2.25;;;5.80;99.90;;;;;;5034426;28;20204;-71
2020/12/07 09:59:16;;;;;;;3.47;2.13;;;5.70;99.90;;;;;;5034454;28;20204;-72
2020/12/07 10:01:42;;;;;;;3.50;2.60;;;5.60;99.90;;;;;;5034253;28;20267;-72
2020/12/07 10:04:08;;;;;;;3.03;2.55;;;5.60;99.90;;;;;;5034080;28;20200;-71
2020/12/07 10:06:35;;;;;;;2.42;2.10;;;5.70;99.90;;;;;;5034136;28;20210;-71
2020/12/07 10:09:02;;;;;;;5.25;2.85;;;5.80;99.90;;;;;;5034174;28;20224;-71
2020/12/07 10:11:28;;;;;;;7.05;3.05;;;5.80;99.90;;;;;;5034156;28;20220;-72
2020/12/07 10:13:54;;;;;;;3.53;2.08;;;5.80;99.90;;;;;;5033921;28;20200;-72
2020/12/07 10:16:21;;;;;;;5.45;2.95;;;5.80;99.90;;;;;;5034077;28;20688;-71
2020/12/07 10:18:47;;;;;;;5.22;2.95;;;5.90;99.90;;;;;;5034113;28;20212;-71
2020/12/07 10:21:13;;;;;;;6.50;2.80;;;5.90;99.90;;;;;;5033686;28;20214;-71
2020/12/07 10:23:40;;;;;;;2.90;2.30;;;5.90;99.90;;;;;;5033760;28;20674;-71
2020/12/07 10:26:07;;;;;;;4.35;2.40;;;5.80;99.90;;;;;;5032912;28;20208;-71
2020/12/07 10:28:33;;;;;;;3.03;2.42;;;5.90;99.90;;;;;;5033865;28;20234;-71
2020/12/07 10:30:59;;;;;;;3.70;2.92;;;6.00;99.90;;;;;;5033464;28;20218;-71
2020/12/07 10:33:26;;;;;;;3.05;2.70;;;6.20;99.90;;;;;;5033915;28;20204;-71
2020/12/07 10:35:52;;;;;;;3.45;2.40;;;6.30;99.90;;;;;;5033403;28;20212;-71
2020/12/07 10:38:18;;;;;;;3.40;2.38;;;6.50;99.90;;;;;;5033822;28;20207;-71
2020/12/07 10:40:45;;;;;;;4.30;2.88;;;6.60;99.90;;;;;;5033454;28;20214;-71
2020/12/07 10:43:12;;;;;;;3.13;2.70;;;6.80;99.90;;;;;;5033754;28;20255;-71
2020/12/07 10:45:38;;;;;;;4.95;2.70;;;7.00;99.90;;;;;;5033511;28;20200;-71
2020/12/07 10:48:05;;;;;;;4.97;2.97;;;7.10;99.90;;;;;;5033671;28;20210;-72
2020/12/07 10:50:31;;;;;;;4.57;2.70;;;7.20;99.90;;;;;;5033632;28;20204;-71
2020/12/07 10:52:57;;;;;;;3.80;2.03;;;7.20;99.90;;;;;;5033416;28;20702;-72
2020/12/07 10:55:23;;;;;;;3.38;2.78;;;7.30;99.90;;;;;;5033438;28;20200;-72
2020/12/07 10:57:51;;;;;;;3.80;2.95;;;7.30;99.90;;;;;;5033621;28;20209;-71
2020/12/07 11:00:18;;;;;;;5.25;2.53;;;7.30;99.90;;;;;;5033722;28;20204;-71
2020/12/07 11:02:44;;;;;;;5.10;3.05;;;7.30;99.90;;;;;;5033704;28;20224;-71
2020/12/07 11:05:11;;;;;;;3.17;2.10;;;7.40;99.90;;;;;;5033268;28;20210;-71
2020/12/07 11:07:37;;;;;;;4.20;3.20;;;7.60;99.90;;;;;;5033479;28;20204;-71
2020/12/07 11:10:04;;;;;;;4.25;3.10;;;7.60;99.90;;;;;;5032791;28;20445;-71
2020/12/07 11:12:30;;;;;;;3.35;2.83;;;7.50;99.90;;;;;;5033104;28;20258;-71
2020/12/07 11:14:57;;;;;;;3.83;2.65;;;7.50;99.90;;;;;;5033469;28;20212;-72
2020/12/07 11:17:24;;;;;;;3.53;2.95;;;7.40;99.90;;;;;;5033408;28;20299;-71
2020/12/07 11:19:50;;;;;;;4.95;3.20;;;7.40;99.90;;;;;;5033288;28;20663;-71
2020/12/07 11:22:17;;;;;;;3.90;2.60;;;7.30;99.90;;;;;;5033230;28;20227;-71
2020/12/07 11:24:43;;;;;;;5.53;3.90;;;7.30;99.90;;;;;;5033192;28;20299;-71
2020/12/07 11:27:09;;;;;;;3.47;3.03;;;7.20;99.90;;;;;;5033117;28;20204;-71
2020/12/07 11:29:36;;;;;;;5.15;2.63;;;7.20;99.90;;;;;;5033476;28;20220;-71
2020/12/07 11:32:02;;;;;;;4.10;2.90;;;7.30;99.90;;;;;;5032919;28;20408;-71
2020/12/07 11:34:29;;;;;;;3.67;2.40;;;7.10;99.90;;;;;;5033299;28;20206;-72
2020/12/07 11:36:55;;;;;;;2.17;1.85;;;7.10;99.90;;;;;;5034813;28;20208;-71
2020/12/07 11:39:36;;;;;;;3.22;2.60;;;7.10;99.90;;;;;;5036842;28;20200;-71
2020/12/07 11:44:47;;;;;;;6.30;3.15;;;7.20;99.90;;;;;;5036471;28;20650;-72
2020/12/07 11:47:14;;;;;;;3.92;2.58;;;7.30;99.90;;;;;;5036853;28;20214;-72
2020/12/07 11:49:42;;;;;;;3.92;2.75;;;7.40;99.90;;;;;;5036820;28;20228;-71
2020/12/07 11:52:08;;;;;;;3.90;2.85;;;7.40;99.90;;;;;;5036561;28;20220;-72
2020/12/07 11:54:36;;;;;;;2.22;2.03;;;7.40;99.90;;;;;;5036628;28;20204;-72
2020/12/07 11:57:05;;;;;;;2.90;2.20;;;7.50;99.90;;;;;;5036888;28;20208;-72
2020/12/07 11:59:32;;;;;;;5.75;2.55;;;7.60;99.90;;;;;;5036727;28;20295;-72
2020/12/07 12:01:58;;;;;;;5.07;3.50;;;7.60;99.90;;;;;;5036679;28;20553;-72
2020/12/07 12:04:25;;;;;;;4.50;2.50;;;7.70;99.90;;;;;;5036541;28;20215;-72
2020/12/07 12:06:52;;;;;;;4.90;2.67;;;7.70;99.90;;;;;;5036381;28;20204;-71
2020/12/07 12:09:18;;;;;;;3.13;2.83;;;7.70;99.90;;;;;;5036457;28;20223;-71
2020/12/07 12:11:44;;;;;;;3.63;2.42;;;7.80;99.90;;;;;;5036309;28;20226;-71
2020/12/07 12:14:11;;;;;;;2.10;1.90;;;7.90;99.90;;;;;;5036543;28;20204;-71
2020/12/07 12:16:39;;;;;;;2.90;1.90;;;8.10;99.90;;;;;;5036005;28;20230;-71
2020/12/07 12:19:07;;;;;;;2.63;1.95;;;8.00;99.90;;;;;;5036497;28;20269;-72
2020/12/07 12:21:34;;;;;;;3.60;2.20;;;8.10;99.90;;;;;;5036064;28;20232;-72
2020/12/07 12:24:03;;;;;;;2.80;1.98;;;8.10;99.90;;;;;;5036351;28;20222;-72
2020/12/07 12:26:30;;;;;;;4.07;2.60;;;8.20;99.90;;;;;;5035975;28;20227;-71
2020/12/07 12:28:56;;;;;;;4.25;2.42;;;8.20;99.90;;;;;;5036016;28;20230;-71
2020/12/07 12:31:23;;;;;;;2.92;2.40;;;8.30;99.90;;;;;;5035829;28;20246;-72
2020/12/07 12:33:49;;;;;;;4.10;2.83;;;8.20;99.90;;;;;;5036141;28;20211;-71
2020/12/07 12:36:17;;;;;;;3.13;2.65;;;8.30;99.90;;;;;;5035668;28;20218;-71
2020/12/07 12:38:44;;;;;;;4.50;2.60;;;8.30;99.90;;;;;;5036018;28;20307;-72
2020/12/07 12:41:11;;;;;;;4.60;3.00;;;8.30;99.90;;;;;;5035793;28;20758;-71
2020/12/07 12:43:38;;;;;;;2.90;2.47;;;8.20;99.90;;;;;;5036133;28;20211;-72
2020/12/07 12:46:05;;;;;;;5.53;2.88;;;8.10;99.90;;;;;;5035700;28;20204;-71
2020/12/07 12:48:32;;;;;;;3.10;2.60;;;8.10;99.90;;;;;;5035032;28;20585;-71
2020/12/07 12:50:58;;;;;;;3.92;2.90;;;8.00;99.90;;;;;;5035533;28;20667;-71
2020/12/07 12:53:24;;;;;;;4.05;2.22;;;8.00;99.90;;;;;;5035720;28;20200;-71
2020/12/07 12:55:51;;;;;;;3.42;2.30;;;7.80;99.90;;;;;;5035362;28;20204;-71
2020/12/07 12:58:19;;;;;;;3.63;2.70;;;7.80;99.90;;;;;;5035586;28;20262;-71
2020/12/07 13:00:46;;;;;;;5.10;3.00;;;7.80;99.90;;;;;;5035549;28;20200;-71
2020/12/07 13:03:12;;;;;;;3.83;2.40;;;7.70;99.90;;;;;;5035527;28;20247;-71
2020/12/07 13:05:39;;;;;;;3.22;2.50;;;7.70;99.90;;;;;;5035048;28;20670;-71
2020/12/07 13:08:05;;;;;;;4.20;2.50;;;7.60;99.90;;;;;;5035421;28;20570;-71
2020/12/07 13:10:32;;;;;;;3.55;2.30;;;7.60;99.90;;;;;;5035228;28;20234;-71
2020/12/07 13:12:59;;;;;;;3.72;2.38;;;7.70;99.90;;;;;;5035024;28;20227;-71
2020/12/07 13:15:27;;;;;;;6.45;3.08;;;7.60;99.90;;;;;;5035652;28;20208;-71
2020/12/07 13:17:56;;;;;;;3.47;2.97;;;7.70;99.90;;;;;;5035195;28;20212;-71
2020/12/07 13:20:29;;;;;;;2.30;2.10;;;7.80;99.90;;;;;;5035088;28;20204;-71
2020/12/07 13:23:03;;;;;;;3.67;2.45;;;7.70;99.90;;;;;;5035144;28;20231;-71
2020/12/07 13:25:38;;;;;;;2.95;2.13;;;7.70;99.90;;;;;;5035005;28;20246;-71